sensor_id;sensor_type;location;lat;lon;timestamp;pressure;altitude;pressure_sealevel;temperature
67509;BMP280;54354;44.724;11.284;2023-04-01T00:00:29;100431.72;;;18.75
67509;BMP280;54354;44.724;11.284;2023-04-01T00:02:55;100431.72;;;18.75
67509;BMP280;54354;44.724;11.284;2023-04-01T00:05:20;100432.69;;;18.71
67509;BMP280;54354;44.724;11.284;2023-04-01T00:07:46;100435.63;;;18.74
67509;BMP280;54354;44.724;11.284;2023-04-01T00:10:13;100433.94;;;18.76
67509;BMP280;54354;44.724;11.284;2023-04-01T00:12:39;100423.50;;;18.78
67509;BMP280;54354;44.724;11.284;2023-04-01T00:15:07;100426.38;;;18.75
67509;BMP280;54354;44.724;11.284;2023-04-01T00:17:32;100425.44;;;18.78
67509;BMP280;54354;44.724;11.284;2023-04-01T00:19:58;100428.34;;;18.80
67509;BMP280;54354;44.724;11.284;2023-04-01T00:22:25;100425.44;;;18.78
67509;BMP280;54354;44.724;11.284;2023-04-01T00:24:51;100435.41;;;18.77
67509;BMP280;54354;44.724;11.284;2023-04-01T00:27:17;100432.22;;;18.73
67509;BMP280;54354;44.724;11.284;2023-04-01T00:29:44;100431.09;;;18.65
67509;BMP280;54354;44.724;11.284;2023-04-01T00:32:10;100425.28;;;18.66
67509;BMP280;54354;44.724;11.284;2023-04-01T00:34:36;100427.97;;;18.66
67509;BMP280;54354;44.724;11.284;2023-04-01T00:37:02;100434.06;;;18.67
67509;BMP280;54354;44.724;11.284;2023-04-01T00:39:31;100421.63;;;18.64
67509;BMP280;54354;44.724;11.284;2023-04-01T00:41:58;100431.91;;;18.71
67509;BMP280;54354;44.724;11.284;2023-04-01T00:44:29;100424.75;;;18.62
67509;BMP280;54354;44.724;11.284;2023-04-01T00:46:56;100422.53;;;18.61
67509;BMP280;54354;44.724;11.284;2023-04-01T00:49:24;100426.38;;;18.54
67509;BMP280;54354;44.724;11.284;2023-04-01T00:51:53;100427.75;;;18.50
67509;BMP280;54354;44.724;11.284;2023-04-01T00:54:20;100425.81;;;18.50
67509;BMP280;54354;44.724;11.284;2023-04-01T00:56:48;100426.75;;;18.47
67509;BMP280;54354;44.724;11.284;2023-04-01T00:59:54;100428.44;;;18.44
67509;BMP280;54354;44.724;11.284;2023-04-01T01:02:14;100427.81;;;18.55
67509;BMP280;54354;44.724;11.284;2023-04-01T01:04:41;100431.00;;;18.54
67509;BMP280;54354;44.724;11.284;2023-04-01T01:09:45;100417.03;;;18.50
67509;BMP280;54354;44.724;11.284;2023-04-01T01:12:18;100421.38;;;18.47
67509;BMP280;54354;44.724;11.284;2023-04-01T01:17:30;100423.06;;;18.44
67509;BMP280;54354;44.724;11.284;2023-04-01T01:20:24;100421.19;;;18.51
67509;BMP280;54354;44.724;11.284;2023-04-01T01:25:54;100424.06;;;18.88
67509;BMP280;54354;44.724;11.284;2023-04-01T01:28:31;100426.66;;;18.41
67509;BMP280;54354;44.724;11.284;2023-04-01T01:36:48;100399.28;;;18.17
67509;BMP280;54354;44.724;11.284;2023-04-01T01:39:18;100401.44;;;18.13
67509;BMP280;54354;44.724;11.284;2023-04-01T01:41:46;100401.16;;;18.11
67509;BMP280;54354;44.724;11.284;2023-04-01T01:44:15;100405.25;;;18.06
67509;BMP280;54354;44.724;11.284;2023-04-01T01:46:42;100406.19;;;18.03
67509;BMP280;54354;44.724;11.284;2023-04-01T01:49:11;100399.25;;;17.97
67509;BMP280;54354;44.724;11.284;2023-04-01T01:51:37;100406.34;;;18.00
67509;BMP280;54354;44.724;11.284;2023-04-01T01:54:06;100404.88;;;17.99
67509;BMP280;54354;44.724;11.284;2023-04-01T01:56:33;100402.13;;;17.93
67509;BMP280;54354;44.724;11.284;2023-04-01T01:59:03;100397.69;;;17.90
67509;BMP280;54354;44.724;11.284;2023-04-01T02:01:35;100401.78;;;17.85
67509;BMP280;54354;44.724;11.284;2023-04-01T02:04:10;100400.19;;;17.79
67509;BMP280;54354;44.724;11.284;2023-04-01T02:06:38;100395.59;;;17.65
67509;BMP280;54354;44.724;11.284;2023-04-01T02:09:07;100398.66;;;17.57
67509;BMP280;54354;44.724;11.284;2023-04-01T02:11:49;100405.19;;;18.01
67509;BMP280;54354;44.724;11.284;2023-04-01T02:14:20;100398.09;;;17.53
67509;BMP280;54354;44.724;11.284;2023-04-01T02:16:51;100394.69;;;17.38
67509;BMP280;54354;44.724;11.284;2023-04-01T02:19:18;100396.44;;;17.26
67509;BMP280;54354;44.724;11.284;2023-04-01T02:21:50;100396.69;;;17.14
67509;BMP280;54354;44.724;11.284;2023-04-01T02:24:18;100395.09;;;17.07
67509;BMP280;54354;44.724;11.284;2023-04-01T02:26:50;100401.22;;;16.98
67509;BMP280;54354;44.724;11.284;2023-04-01T02:29:19;100399.94;;;16.94
67509;BMP280;54354;44.724;11.284;2023-04-01T02:31:46;100407.63;;;17.01
67509;BMP280;54354;44.724;11.284;2023-04-01T02:34:12;100410.94;;;16.96
67509;BMP280;54354;44.724;11.284;2023-04-01T02:36:38;100403.66;;;16.96
67509;BMP280;54354;44.724;11.284;2023-04-01T02:39:05;100402.91;;;16.96
67509;BMP280;54354;44.724;11.284;2023-04-01T02:41:30;100407.06;;;16.97
67509;BMP280;54354;44.724;11.284;2023-04-01T02:43:56;100408.81;;;17.00
67509;BMP280;54354;44.724;11.284;2023-04-01T02:46:24;100409.25;;;16.98
67509;BMP280;54354;44.724;11.284;2023-04-01T02:48:50;100410.47;;;16.97
67509;BMP280;54354;44.724;11.284;2023-04-01T02:51:16;100415.38;;;16.99
67509;BMP280;54354;44.724;11.284;2023-04-01T02:53:41;100414.16;;;17.00
67509;BMP280;54354;44.724;11.284;2023-04-01T02:56:07;100419.88;;;16.93
67509;BMP280;54354;44.724;11.284;2023-04-01T02:58:32;100418.28;;;16.86
67509;BMP280;54354;44.724;11.284;2023-04-01T03:00:58;100415.31;;;16.84
67509;BMP280;54354;44.724;11.284;2023-04-01T03:03:23;100415.75;;;16.83
67509;BMP280;54354;44.724;11.284;2023-04-01T03:05:49;100421.09;;;16.83
67509;BMP280;54354;44.724;11.284;2023-04-01T03:08:14;100425.44;;;16.80
67509;BMP280;54354;44.724;11.284;2023-04-01T03:10:40;100419.34;;;16.80
67509;BMP280;54354;44.724;11.284;2023-04-01T03:13:06;100423.22;;;16.79
67509;BMP280;54354;44.724;11.284;2023-04-01T03:15:31;100428.75;;;16.75
67509;BMP280;54354;44.724;11.284;2023-04-01T03:17:57;100425.78;;;16.73
67509;BMP280;54354;44.724;11.284;2023-04-01T03:20:23;100429.06;;;16.68
67509;BMP280;54354;44.724;11.284;2023-04-01T03:22:49;100433.13;;;16.63
67509;BMP280;54354;44.724;11.284;2023-04-01T03:25:15;100433.00;;;16.58
67509;BMP280;54354;44.724;11.284;2023-04-01T03:27:40;100443.69;;;16.58
67509;BMP280;54354;44.724;11.284;2023-04-01T03:30:07;100442.19;;;16.57
67509;BMP280;54354;44.724;11.284;2023-04-01T03:32:39;100449.50;;;16.56
67509;BMP280;54354;44.724;11.284;2023-04-01T03:35:05;100449.66;;;16.53
67509;BMP280;54354;44.724;11.284;2023-04-01T03:37:31;100450.84;;;16.52
67509;BMP280;54354;44.724;11.284;2023-04-01T03:39:57;100456.19;;;16.52
67509;BMP280;54354;44.724;11.284;2023-04-01T03:42:22;100453.25;;;16.49
67509;BMP280;54354;44.724;11.284;2023-04-01T03:44:48;100449.84;;;16.49
67509;BMP280;54354;44.724;11.284;2023-04-01T03:47:13;100455.59;;;16.47
67509;BMP280;54354;44.724;11.284;2023-04-01T03:49:39;100462.44;;;16.48
67509;BMP280;54354;44.724;11.284;2023-04-01T03:52:09;100450.44;;;16.44
67509;BMP280;54354;44.724;11.284;2023-04-01T03:54:34;100462.59;;;16.54
67509;BMP280;54354;44.724;11.284;2023-04-01T03:57:00;100455.72;;;16.53
67509;BMP280;54354;44.724;11.284;2023-04-01T03:59:26;100456.78;;;16.56
67509;BMP280;54354;44.724;11.284;2023-04-01T04:01:52;100452.44;;;16.58
67509;BMP280;54354;44.724;11.284;2023-04-01T04:04:17;100445.72;;;16.63
67509;BMP280;54354;44.724;11.284;2023-04-01T04:06:43;100444.25;;;16.62
67509;BMP280;54354;44.724;11.284;2023-04-01T04:09:08;100448.16;;;16.61
67509;BMP280;54354;44.724;11.284;2023-04-01T04:11:34;100447.09;;;16.58
67509;BMP280;54354;44.724;11.284;2023-04-01T04:14:00;100453.06;;;16.53
67509;BMP280;54354;44.724;11.284;2023-04-01T04:16:27;100453.97;;;16.50
67509;BMP280;54354;44.724;11.284;2023-04-01T04:18:57;100445.03;;;16.53
67509;BMP280;54354;44.724;11.284;2023-04-01T04:21:23;100457.38;;;16.51
67509;BMP280;54354;44.724;11.284;2023-04-01T04:23:48;100462.00;;;16.50
67509;BMP280;54354;44.724;11.284;2023-04-01T04:26:16;100465.56;;;16.47
67509;BMP280;54354;44.724;11.284;2023-04-01T04:28:47;100466.03;;;16.45
67509;BMP280;54354;44.724;11.284;2023-04-01T04:31:19;100468.44;;;16.34
67509;BMP280;54354;44.724;11.284;2023-04-01T04:33:45;100470.38;;;16.34
67509;BMP280;54354;44.724;11.284;2023-04-01T04:36:11;100468.13;;;16.32
67509;BMP280;54354;44.724;11.284;2023-04-01T04:38:36;100467.41;;;16.32
67509;BMP280;54354;44.724;11.284;2023-04-01T04:41:02;100465.19;;;16.30
67509;BMP280;54354;44.724;11.284;2023-04-01T04:43:28;100460.72;;;16.27
67509;BMP280;54354;44.724;11.284;2023-04-01T04:45:55;100465.06;;;16.25
67509;BMP280;54354;44.724;11.284;2023-04-01T04:48:20;100459.44;;;16.23
67509;BMP280;54354;44.724;11.284;2023-04-01T04:50:48;100457.81;;;16.16
67509;BMP280;54354;44.724;11.284;2023-04-01T04:53:17;100449.22;;;16.12
67509;BMP280;54354;44.724;11.284;2023-04-01T04:55:48;100454.69;;;16.08
67509;BMP280;54354;44.724;11.284;2023-04-01T04:58:22;100477.84;;;16.11
67509;BMP280;54354;44.724;11.284;2023-04-01T05:00:48;100476.66;;;16.03
67509;BMP280;54354;44.724;11.284;2023-04-01T05:03:25;100480.13;;;15.94
67509;BMP280;54354;44.724;11.284;2023-04-01T05:05:53;100481.63;;;15.86
67509;BMP280;54354;44.724;11.284;2023-04-01T05:08:19;100483.41;;;15.80
67509;BMP280;54354;44.724;11.284;2023-04-01T05:10:46;100477.44;;;15.76
67509;BMP280;54354;44.724;11.284;2023-04-01T05:13:11;100479.84;;;15.74
67509;BMP280;54354;44.724;11.284;2023-04-01T05:15:38;100471.22;;;15.70
67509;BMP280;54354;44.724;11.284;2023-04-01T05:18:04;100484.56;;;15.70
67509;BMP280;54354;44.724;11.284;2023-04-01T05:20:29;100481.47;;;15.72
67509;BMP280;54354;44.724;11.284;2023-04-01T05:22:58;100485.78;;;15.69
67509;BMP280;54354;44.724;11.284;2023-04-01T05:25:25;100493.34;;;15.80
67509;BMP280;54354;44.724;11.284;2023-04-01T05:27:51;100509.03;;;15.87
67509;BMP280;54354;44.724;11.284;2023-04-01T05:30:17;100506.06;;;15.94
67509;BMP280;54354;44.724;11.284;2023-04-01T05:33:10;100501.91;;;16.02
67509;BMP280;54354;44.724;11.284;2023-04-01T05:35:36;100508.28;;;16.05
67509;BMP280;54354;44.724;11.284;2023-04-01T05:38:02;100506.19;;;16.09
67509;BMP280;54354;44.724;11.284;2023-04-01T05:40:29;100506.81;;;16.13
67509;BMP280;54354;44.724;11.284;2023-04-01T05:42:55;100513.59;;;16.14
67509;BMP280;54354;44.724;11.284;2023-04-01T05:45:20;100509.31;;;16.16
67509;BMP280;54354;44.724;11.284;2023-04-01T05:47:59;100507.69;;;16.19
67509;BMP280;54354;44.724;11.284;2023-04-01T05:50:25;100516.56;;;16.25
67509;BMP280;54354;44.724;11.284;2023-04-01T05:52:51;100520.56;;;16.30
67509;BMP280;54354;44.724;11.284;2023-04-01T05:55:17;100523.81;;;16.34
67509;BMP280;54354;44.724;11.284;2023-04-01T05:57:45;100522.16;;;16.36
67509;BMP280;54354;44.724;11.284;2023-04-01T06:00:12;100520.09;;;16.40
67509;BMP280;54354;44.724;11.284;2023-04-01T06:02:41;100520.19;;;16.46
67509;BMP280;54354;44.724;11.284;2023-04-01T06:05:23;100511.59;;;16.51
67509;BMP280;54354;44.724;11.284;2023-04-01T06:07:58;100512.59;;;16.54
67509;BMP280;54354;44.724;11.284;2023-04-01T06:10:38;100521.06;;;16.61
67509;BMP280;54354;44.724;11.284;2023-04-01T06:13:23;100521.47;;;16.69
67509;BMP280;54354;44.724;11.284;2023-04-01T06:16:01;100526.66;;;16.72
67509;BMP280;54354;44.724;11.284;2023-04-01T06:18:41;100528.38;;;16.85
67509;BMP280;54354;44.724;11.284;2023-04-01T06:27:00;100533.59;;;17.12
67509;BMP280;54354;44.724;11.284;2023-04-01T06:35:17;100536.47;;;17.47
67509;BMP280;54354;44.724;11.284;2023-04-01T06:38:10;100541.88;;;17.62
67509;BMP280;54354;44.724;11.284;2023-04-01T06:43:42;100540.13;;;18.03
67509;BMP280;54354;44.724;11.284;2023-04-01T06:46:32;100536.25;;;18.34
67509;BMP280;54354;44.724;11.284;2023-04-01T06:49:46;100535.75;;;19.06
67509;BMP280;54354;44.724;11.284;2023-04-01T06:53:00;100547.28;;;19.12
67509;BMP280;54354;44.724;11.284;2023-04-01T06:55:55;100550.09;;;19.43
67509;BMP280;54354;44.724;11.284;2023-04-01T06:58:56;100546.56;;;19.83
67509;BMP280;54354;44.724;11.284;2023-04-01T07:01:27;100551.91;;;20.09
67509;BMP280;54354;44.724;11.284;2023-04-01T07:03:57;100549.13;;;20.30
67509;BMP280;54354;44.724;11.284;2023-04-01T07:06:35;100561.91;;;20.40
67509;BMP280;54354;44.724;11.284;2023-04-01T07:09:06;100560.75;;;20.53
67509;BMP280;54354;44.724;11.284;2023-04-01T07:12:01;100552.53;;;20.73
67509;BMP280;54354;44.724;11.284;2023-04-01T07:14:55;100557.50;;;20.86
67509;BMP280;54354;44.724;11.284;2023-04-01T07:17:31;100553.63;;;20.92
67509;BMP280;54354;44.724;11.284;2023-04-01T07:22:40;100555.91;;;21.16
67509;BMP280;54354;44.724;11.284;2023-04-01T07:25:27;100558.16;;;21.35
67509;BMP280;54354;44.724;11.284;2023-04-01T07:28:15;100559.41;;;21.56
67509;BMP280;54354;44.724;11.284;2023-04-01T07:42:47;100562.59;;;22.33
67509;BMP280;54354;44.724;11.284;2023-04-01T07:45:45;100565.72;;;22.42
67509;BMP280;54354;44.724;11.284;2023-04-01T07:48:37;100559.81;;;22.55
67509;BMP280;54354;44.724;11.284;2023-04-01T07:51:21;100563.75;;;22.60
67509;BMP280;54354;44.724;11.284;2023-04-01T07:59:23;100559.91;;;22.91
67509;BMP280;54354;44.724;11.284;2023-04-01T08:04:58;100564.53;;;23.01
67509;BMP280;54354;44.724;11.284;2023-04-01T08:07:36;100554.94;;;23.06
67509;BMP280;54354;44.724;11.284;2023-04-01T08:17:05;100550.13;;;23.29
67509;BMP280;54354;44.724;11.284;2023-04-01T08:20:41;100549.34;;;23.34
67509;BMP280;54354;44.724;11.284;2023-04-01T08:22:58;100558.19;;;23.34
67509;BMP280;54354;44.724;11.284;2023-04-01T08:25:32;100558.44;;;23.36
67509;BMP280;54354;44.724;11.284;2023-04-01T08:30:49;100560.16;;;23.40
67509;BMP280;54354;44.724;11.284;2023-04-01T08:33:26;100553.53;;;23.29
67509;BMP280;54354;44.724;11.284;2023-04-01T08:36:07;100562.94;;;23.23
67509;BMP280;54354;44.724;11.284;2023-04-01T08:47:13;100563.41;;;22.86
67509;BMP280;54354;44.724;11.284;2023-04-01T08:53:13;100558.78;;;22.75
67509;BMP280;54354;44.724;11.284;2023-04-01T08:55:56;100555.84;;;22.67
67509;BMP280;54354;44.724;11.284;2023-04-01T09:01:52;100560.03;;;22.63
67509;BMP280;54354;44.724;11.284;2023-04-01T09:16:57;100565.00;;;22.42
67509;BMP280;54354;44.724;11.284;2023-04-01T09:27:57;100561.34;;;22.34
67509;BMP280;54354;44.724;11.284;2023-04-01T09:39:37;100562.78;;;22.46
67509;BMP280;54354;44.724;11.284;2023-04-01T09:42:23;100565.50;;;22.40
67509;BMP280;54354;44.724;11.284;2023-04-01T09:47:43;100557.13;;;22.50
67509;BMP280;54354;44.724;11.284;2023-04-01T09:58:22;100557.88;;;22.56
67509;BMP280;54354;44.724;11.284;2023-04-01T10:24:25;100537.16;;;22.75
67509;BMP280;54354;44.724;11.284;2023-04-01T10:50:21;100509.63;;;22.88
67509;BMP280;54354;44.724;11.284;2023-04-01T11:05:25;100496.50;;;23.03
67509;BMP280;54354;44.724;11.284;2023-04-01T11:33:22;100472.66;;;23.13
67509;BMP280;54354;44.724;11.284;2023-04-01T11:45:19;100468.91;;;23.21
67509;BMP280;54354;44.724;11.284;2023-04-01T11:54:12;100453.78;;;23.37
67509;BMP280;54354;44.724;11.284;2023-04-01T11:59:27;100457.50;;;23.34
67509;BMP280;54354;44.724;11.284;2023-04-01T12:05:03;100452.34;;;23.36
67509;BMP280;54354;44.724;11.284;2023-04-01T12:07:55;100449.28;;;23.45
67509;BMP280;54354;44.724;11.284;2023-04-01T12:13:30;100439.00;;;23.44
67509;BMP280;54354;44.724;11.284;2023-04-01T12:16:04;100441.88;;;23.51
67509;BMP280;54354;44.724;11.284;2023-04-01T12:18:35;100446.28;;;23.54
67509;BMP280;54354;44.724;11.284;2023-04-01T12:21:56;100434.88;;;23.61
67509;BMP280;54354;44.724;11.284;2023-04-01T12:25:00;100435.00;;;23.75
67509;BMP280;54354;44.724;11.284;2023-04-01T12:27:54;100447.91;;;23.63
67509;BMP280;54354;44.724;11.284;2023-04-01T12:30:47;100434.59;;;23.65
67509;BMP280;54354;44.724;11.284;2023-04-01T12:47:24;100440.56;;;23.82
67509;BMP280;54354;44.724;11.284;2023-04-01T12:55:42;100434.72;;;23.78
67509;BMP280;54354;44.724;11.284;2023-04-01T13:09:52;100424.59;;;23.84
67509;BMP280;54354;44.724;11.284;2023-04-01T13:12:36;100425.00;;;23.88
67509;BMP280;54354;44.724;11.284;2023-04-01T13:15:37;100421.31;;;23.91
67509;BMP280;54354;44.724;11.284;2023-04-01T13:18:20;100413.47;;;23.88
67509;BMP280;54354;44.724;11.284;2023-04-01T13:26:37;100407.56;;;23.89
67509;BMP280;54354;44.724;11.284;2023-04-01T13:42:40;100392.69;;;23.53
67509;BMP280;54354;44.724;11.284;2023-04-01T13:50:42;100378.47;;;23.52
67509;BMP280;54354;44.724;11.284;2023-04-01T13:53:42;100374.47;;;23.59
67509;BMP280;54354;44.724;11.284;2023-04-01T13:59:10;100375.19;;;23.59
67509;BMP280;54354;44.724;11.284;2023-04-01T14:01:47;100361.91;;;23.61
67509;BMP280;54354;44.724;11.284;2023-04-01T14:07:26;100364.63;;;23.61
67509;BMP280;54354;44.724;11.284;2023-04-01T14:10:36;100361.31;;;23.68
67509;BMP280;54354;44.724;11.284;2023-04-01T14:40:33;100336.06;;;23.85
67509;BMP280;54354;44.724;11.284;2023-04-01T14:49:15;100323.06;;;23.83
67509;BMP280;54354;44.724;11.284;2023-04-01T14:51:43;100316.91;;;23.83
67509;BMP280;54354;44.724;11.284;2023-04-01T14:54:14;100318.75;;;23.75
67509;BMP280;54354;44.724;11.284;2023-04-01T14:57:04;100314.50;;;23.79
67509;BMP280;54354;44.724;11.284;2023-04-01T14:59:31;100317.44;;;23.81
67509;BMP280;54354;44.724;11.284;2023-04-01T15:05:06;100315.75;;;23.78
67509;BMP280;54354;44.724;11.284;2023-04-01T15:08:11;100308.88;;;23.77
67509;BMP280;54354;44.724;11.284;2023-04-01T15:18:56;100308.63;;;23.81
67509;BMP280;54354;44.724;11.284;2023-04-01T15:21:44;100304.13;;;23.83
67509;BMP280;54354;44.724;11.284;2023-04-01T15:24:26;100312.53;;;23.80
67509;BMP280;54354;44.724;11.284;2023-04-01T15:37:55;100305.28;;;24.07
67509;BMP280;54354;44.724;11.284;2023-04-01T15:40:31;100306.00;;;24.07
67509;BMP280;54354;44.724;11.284;2023-04-01T15:43:40;100302.41;;;24.18
67509;BMP280;54354;44.724;11.284;2023-04-01T15:57:32;100289.88;;;24.34
67509;BMP280;54354;44.724;11.284;2023-04-01T16:13:24;100303.88;;;24.38
67509;BMP280;54354;44.724;11.284;2023-04-01T16:21:57;100296.47;;;24.38
67509;BMP280;54354;44.724;11.284;2023-04-01T16:27:02;100309.88;;;24.31
67509;BMP280;54354;44.724;11.284;2023-04-01T16:29:38;100310.06;;;24.33
67509;BMP280;54354;44.724;11.284;2023-04-01T16:35:16;100313.50;;;24.33
67509;BMP280;54354;44.724;11.284;2023-04-01T16:37:55;100306.63;;;24.32
67509;BMP280;54354;44.724;11.284;2023-04-01T16:49:02;100315.00;;;24.34
67509;BMP280;54354;44.724;11.284;2023-04-01T16:51:53;100313.66;;;24.41
67509;BMP280;54354;44.724;11.284;2023-04-01T16:54:47;100317.09;;;24.41
67509;BMP280;54354;44.724;11.284;2023-04-01T17:00:22;100321.97;;;24.43
67509;BMP280;54354;44.724;11.284;2023-04-01T17:05:48;100316.66;;;24.37
67509;BMP280;54354;44.724;11.284;2023-04-01T17:30:17;100344.34;;;24.11
67509;BMP280;54354;44.724;11.284;2023-04-01T17:33:27;100347.84;;;24.06
67509;BMP280;54354;44.724;11.284;2023-04-01T17:44:11;100358.09;;;24.13
67509;BMP280;54354;44.724;11.284;2023-04-01T18:11:17;100380.63;;;22.75
67509;BMP280;54354;44.724;11.284;2023-04-01T18:17:24;100372.59;;;22.64
67509;BMP280;54354;44.724;11.284;2023-04-01T18:19:54;100374.63;;;22.52
67509;BMP280;54354;44.724;11.284;2023-04-01T18:22:46;100373.47;;;22.36
67509;BMP280;54354;44.724;11.284;2023-04-01T18:30:53;100388.53;;;22.15
67509;BMP280;54354;44.724;11.284;2023-04-01T18:33:29;100382.44;;;22.09
67509;BMP280;54354;44.724;11.284;2023-04-01T18:47:47;100396.00;;;21.81
67509;BMP280;54354;44.724;11.284;2023-04-01T18:53:39;100403.88;;;21.68
67509;BMP280;54354;44.724;11.284;2023-04-01T18:56:09;100392.38;;;21.56
67509;BMP280;54354;44.724;11.284;2023-04-01T18:58:54;100396.56;;;21.51
67509;BMP280;54354;44.724;11.284;2023-04-01T19:01:28;100406.56;;;21.51
67509;BMP280;54354;44.724;11.284;2023-04-01T19:04:09;100401.97;;;21.46
67509;BMP280;54354;44.724;11.284;2023-04-01T19:06:52;100402.69;;;21.41
67509;BMP280;54354;44.724;11.284;2023-04-01T19:14:56;100410.28;;;21.25
67509;BMP280;54354;44.724;11.284;2023-04-01T19:17:29;100412.47;;;21.27
67509;BMP280;54354;44.724;11.284;2023-04-01T19:22:44;100414.19;;;21.13
67509;BMP280;54354;44.724;11.284;2023-04-01T19:31:23;100413.44;;;20.96
67509;BMP280;54354;44.724;11.284;2023-04-01T19:40:06;100417.81;;;20.93
67509;BMP280;54354;44.724;11.284;2023-04-01T19:45:08;100413.91;;;20.83
67509;BMP280;54354;44.724;11.284;2023-04-01T19:52:50;100422.66;;;20.72
67509;BMP280;54354;44.724;11.284;2023-04-01T19:58:44;100425.88;;;20.71
67509;BMP280;54354;44.724;11.284;2023-04-01T20:01:17;100434.13;;;20.56
67509;BMP280;54354;44.724;11.284;2023-04-01T20:03:54;100429.94;;;20.50
67509;BMP280;54354;44.724;11.284;2023-04-01T20:14:53;100439.63;;;20.30
67509;BMP280;54354;44.724;11.284;2023-04-01T20:20:18;100435.44;;;20.24
67509;BMP280;54354;44.724;11.284;2023-04-01T20:27:58;100435.66;;;20.20
67509;BMP280;54354;44.724;11.284;2023-04-01T20:30:38;100434.66;;;20.18
67509;BMP280;54354;44.724;11.284;2023-04-01T20:33:21;100431.72;;;20.16
67509;BMP280;54354;44.724;11.284;2023-04-01T20:44:03;100431.22;;;20.17
67509;BMP280;54354;44.724;11.284;2023-04-01T20:49:59;100436.03;;;20.02
67509;BMP280;54354;44.724;11.284;2023-04-01T20:55:03;100441.91;;;20.00
67509;BMP280;54354;44.724;11.284;2023-04-01T21:00:33;100439.88;;;19.90
67509;BMP280;54354;44.724;11.284;2023-04-01T21:11:31;100444.22;;;19.81
67509;BMP280;54354;44.724;11.284;2023-04-01T21:14:32;100444.75;;;19.85
67509;BMP280;54354;44.724;11.284;2023-04-01T21:17:10;100452.75;;;19.80
67509;BMP280;54354;44.724;11.284;2023-04-01T21:25:01;100462.53;;;19.83
67509;BMP280;54354;44.724;11.284;2023-04-01T21:27:39;100462.03;;;19.79
67509;BMP280;54354;44.724;11.284;2023-04-01T21:30:59;100460.06;;;19.79
67509;BMP280;54354;44.724;11.284;2023-04-01T21:33:14;100462.03;;;19.79
67509;BMP280;54354;44.724;11.284;2023-04-01T21:43:59;100473.44;;;19.68
67509;BMP280;54354;44.724;11.284;2023-04-01T21:49:14;100476.28;;;19.59
67509;BMP280;54354;44.724;11.284;2023-04-01T21:52:05;100485.06;;;19.60
67509;BMP280;54354;44.724;11.284;2023-04-01T22:13:20;100485.84;;;19.66
67509;BMP280;54354;44.724;11.284;2023-04-01T22:18:32;100481.91;;;19.61
67509;BMP280;54354;44.724;11.284;2023-04-01T22:26:49;100477.38;;;19.47
67509;BMP280;54354;44.724;11.284;2023-04-01T22:29:32;100473.97;;;19.46
67509;BMP280;54354;44.724;11.284;2023-04-01T22:32:12;100478.78;;;19.42
67509;BMP280;54354;44.724;11.284;2023-04-01T22:37:34;100479.44;;;19.32
67509;BMP280;54354;44.724;11.284;2023-04-01T22:42:44;100479.88;;;19.30
67509;BMP280;54354;44.724;11.284;2023-04-01T22:48:18;100486.16;;;19.21
67509;BMP280;54354;44.724;11.284;2023-04-01T22:53:38;100489.56;;;19.22
67509;BMP280;54354;44.724;11.284;2023-04-01T22:56:15;100490.78;;;19.21
67509;BMP280;54354;44.724;11.284;2023-04-01T22:58:54;100484.19;;;19.22
67509;BMP280;54354;44.724;11.284;2023-04-01T23:01:26;100485.00;;;19.28
67509;BMP280;54354;44.724;11.284;2023-04-01T23:03:52;100491.84;;;19.29
67509;BMP280;54354;44.724;11.284;2023-04-01T23:06:26;100487.44;;;19.26
67509;BMP280;54354;44.724;11.284;2023-04-01T23:09:08;100487.94;;;19.30
67509;BMP280;54354;44.724;11.284;2023-04-01T23:14:34;100483.00;;;19.23
67509;BMP280;54354;44.724;11.284;2023-04-01T23:17:09;100484.97;;;19.22
67509;BMP280;54354;44.724;11.284;2023-04-01T23:25:12;100504.19;;;19.41
67509;BMP280;54354;44.724;11.284;2023-04-01T23:35:59;100514.25;;;19.46
67509;BMP280;54354;44.724;11.284;2023-04-01T23:38:37;100513.16;;;19.38
67509;BMP280;54354;44.724;11.284;2023-04-01T23:41:04;100510.78;;;19.40
67509;BMP280;54354;44.724;11.284;2023-04-01T23:43:37;100509.72;;;19.32
67509;BMP280;54354;44.724;11.284;2023-04-01T23:46:03;100516.28;;;19.31
67509;BMP280;54354;44.724;11.284;2023-04-01T23:48:40;100514.00;;;19.24
67509;BMP280;54354;44.724;11.284;2023-04-01T23:51:36;100515.84;;;19.38
67509;BMP280;54354;44.724;11.284;2023-04-01T23:54:14;100510.91;;;19.31
67509;BMP280;54354;44.724;11.284;2023-04-01T23:56:45;100508.44;;;19.27
